Time;durP1;ratioP1;P1;durP2;ratioP2;P2;SDS_P1;SDS_P2;PMS_P1;PMS_P2;Temp;Humidity;BMP_temperature;BMP_pressure;BME280_temperature;BME280_humidity;BME280_pressure;Samples;Min_cycle;Max_cycle;Signal;HPM_P1;HPM_P2
2022/05/11 00:00:00;;;;;;;2.65;2.45;;;;;;;15.08;74.05;101225.72;1032332;28;20057;-79
2022/05/11 00:00:42;;;;;;;5.00;2.28;;;;;;;15.10;73.91;101216.38;1037371;28;20045;-79
2022/05/11 00:01:13;;;;;;;2.75;2.50;;;;;;;15.08;74.50;101221.19;1039114;28;20042;-79
2022/05/11 00:01:46;;;;;;;6.53;2.50;;;;;;;15.09;74.45;101222.00;1043049;28;20451;-79
2022/05/11 00:02:18;;;;;;;3.78;2.22;;;;;;;14.97;75.22;101213.13;1040244;28;20519;-79
2022/05/11 00:02:50;;;;;;;4.75;2.15;;;;;;;15.06;74.83;101217.88;1040979;28;20558;-79
2022/05/11 00:03:21;;;;;;;4.30;2.40;;;;;;;15.07;75.25;101214.19;1040314;28;20526;-79
2022/05/11 00:03:53;;;;;;;6.38;2.20;;;;;;;15.04;75.49;101213.81;1040813;28;20045;-79
2022/05/11 00:04:25;;;;;;;4.65;2.20;;;;;;;15.12;75.22;101210.78;1044501;28;20049;-79
2022/05/11 00:04:56;;;;;;;2.30;2.08;;;;;;;15.20;75.10;101207.72;1044669;28;20045;-79
2022/05/11 00:05:28;;;;;;;2.95;2.38;;;;;;;15.14;74.37;101209.50;1044827;28;20044;-79
2022/05/11 00:05:59;;;;;;;5.05;3.28;;;;;;;15.15;74.62;101210.31;1044742;28;20045;-79
2022/05/11 00:06:31;;;;;;;7.05;3.00;;;;;;;15.21;74.51;101209.34;1044826;28;20041;-79
2022/05/11 00:07:03;;;;;;;3.20;2.45;;;;;;;15.18;74.24;101211.69;1044501;28;20045;-79
2022/05/11 00:07:35;;;;;;;6.50;2.47;;;;;;;15.21;74.07;101216.59;1036252;28;20046;-79
2022/05/11 00:08:07;;;;;;;6.15;2.83;;;;;;;14.99;75.16;101216.41;1032170;28;20046;-79
2022/05/11 00:08:39;;;;;;;4.97;2.28;;;;;;;14.99;75.12;101214.53;1028919;28;20107;-79
2022/05/11 00:09:12;;;;;;;7.57;2.55;;;;;;;15.04;74.21;101214.63;1032873;28;20039;-79
2022/05/11 00:09:44;;;;;;;9.88;3.00;;;;;;;15.08;74.34;101215.00;1033029;28;20046;-80
2022/05/11 00:10:15;;;;;;;6.25;2.50;;;;;;;15.19;74.03;101216.00;1037047;28;20049;-79
2022/05/11 00:10:47;;;;;;;6.60;2.35;;;;;;;15.05;75.26;101210.88;1040396;28;20038;-79
2022/05/11 00:11:19;;;;;;;3.85;2.65;;;;;;;15.02;74.81;101208.69;1040722;28;20125;-79
2022/05/11 00:11:50;;;;;;;7.90;2.50;;;;;;;15.10;74.70;101211.03;1040510;28;20056;-79
2022/05/11 00:12:22;;;;;;;13.07;3.08;;;;;;;15.07;75.19;101208.00;1044084;28;20049;-79
2022/05/11 00:12:54;;;;;;;5.07;2.45;;;;;;;14.80;75.03;101202.34;1044504;28;20044;-79
2022/05/11 00:13:27;;;;;;;7.22;2.45;;;;;;;14.92;75.54;101204.97;1040398;28;20507;-79
2022/05/11 00:14:00;;;;;;;5.30;2.72;;;;;;;14.97;75.30;101205.91;1040273;28;20076;-79
2022/05/11 00:14:31;;;;;;;8.10;2.42;;;;;;;14.99;75.77;101201.13;1040291;28;20064;-79
2022/05/11 00:15:03;;;;;;;6.88;2.53;;;;;;;14.98;75.63;101198.66;1041092;28;20044;-79
2022/05/11 00:15:36;;;;;;;8.05;2.33;;;;;;;14.95;75.17;101208.00;1044319;28;20041;-79
2022/05/11 00:16:07;;;;;;;9.05;3.30;;;;;;;14.98;75.49;101201.34;1041024;28;20442;-79
2022/05/11 00:16:40;;;;;;;5.68;2.45;;;;;;;15.03;75.42;101207.63;1041115;28;20052;-79
2022/05/11 00:17:12;;;;;;;4.45;2.15;;;;;;;15.06;75.96;101203.66;1040258;28;20056;-79
2022/05/11 00:17:43;;;;;;;5.05;2.40;;;;;;;15.02;76.03;101207.88;1041006;28;20063;-79
2022/05/11 00:18:15;;;;;;;3.65;2.33;;;;;;;15.09;76.47;101201.34;1040347;28;20038;-79
2022/05/11 00:18:46;;;;;;;5.63;2.78;;;;;;;15.04;75.98;101203.91;1040982;28;20037;-79
2022/05/11 00:19:20;;;;;;;5.13;2.20;;;;;;;14.92;76.83;101200.44;1040291;28;20052;-79
2022/05/11 00:19:52;;;;;;;9.07;2.45;;;;;;;14.86;77.67;101206.75;1041191;28;20047;-79
2022/05/11 00:20:24;;;;;;;8.93;2.47;;;;;;;14.84;77.72;101196.25;1044502;28;20446;-79
2022/05/11 00:20:56;;;;;;;4.40;2.55;;;;;;;14.90;76.56;101193.69;1044484;28;20522;-79
2022/05/11 00:21:28;;;;;;;6.75;2.03;;;;;;;14.89;76.60;101195.53;1044379;28;20415;-79
2022/05/11 00:21:59;;;;;;;5.47;2.42;;;;;;;14.95;77.43;101199.97;1037876;28;20121;-79
2022/05/11 00:22:31;;;;;;;6.30;2.33;;;;;;;14.83;77.36;101199.19;1036062;28;20046;-79
2022/05/11 00:23:02;;;;;;;5.60;2.78;;;;;;;14.94;77.04;101192.97;1036676;28;20382;-79
2022/05/11 00:23:34;;;;;;;6.53;2.58;;;;;;;14.95;76.74;101205.31;1040985;28;20046;-79
2022/05/11 00:24:06;;;;;;;7.05;2.15;;;;;;;15.01;75.18;101204.38;1037625;28;20049;-80
2022/05/11 00:24:38;;;;;;;9.65;3.53;;;;;;;15.04;75.25;101192.34;1040131;28;20385;-79
2022/05/11 00:25:12;;;;;;;14.52;2.90;;;;;;;14.98;76.30;101204.03;1040577;28;20053;-78
2022/05/11 00:25:46;;;;;;;9.10;2.50;;;;;;;15.03;76.07;101207.63;1037535;28;20049;-79
2022/05/11 00:26:18;;;;;;;16.40;3.65;;;;;;;15.07;75.32;101203.44;1041453;28;20419;-79
2022/05/11 00:26:49;;;;;;;10.80;2.60;;;;;;;15.01;76.11;101209.75;1044518;28;20056;-79
2022/05/11 00:27:21;;;;;;;5.55;2.58;;;;;;;15.00;76.03;101208.09;1041143;28;20048;-80
2022/05/11 00:27:53;;;;;;;4.10;2.80;;;;;;;14.94;75.72;101209.06;1044468;28;20037;-79
2022/05/11 00:28:25;;;;;;;4.82;2.45;;;;;;;14.95;75.73;101205.31;1040261;28;20579;-79
2022/05/11 00:28:57;;;;;;;8.77;2.72;;;;;;;15.00;75.34;101201.94;1040690;28;20052;-79
2022/05/11 00:29:30;;;;;;;7.40;2.75;;;;;;;15.00;75.37;101193.88;1040126;28;20055;-79
2022/05/11 00:30:02;;;;;;;10.60;2.63;;;;;;;14.98;75.66;101194.13;1040944;28;20037;-79
2022/05/11 00:30:34;;;;;;;4.32;2.42;;;;;;;14.78;75.50;101182.94;1044226;28;20043;-79
2022/05/11 00:31:06;;;;;;;9.80;2.90;;;;;;;14.89;75.59;101192.88;1044314;28;20576;-79
2022/05/11 00:31:37;;;;;;;4.32;1.85;;;;;;;14.87;75.87;101186.91;1044709;28;20179;-79
2022/05/11 00:32:09;;;;;;;4.75;2.40;;;;;;;15.02;76.28;101189.91;1044600;28;20383;-79
2022/05/11 00:32:40;;;;;;;2.78;2.10;;;;;;;15.03;75.09;101178.13;1044625;28;20045;-79
2022/05/11 00:33:14;;;;;;;6.57;2.10;;;;;;;15.05;74.98;101176.00;1044644;28;20426;-79
2022/05/11 00:33:45;;;;;;;5.65;2.45;;;;;;;15.06;75.57;101174.97;1040329;28;20041;-79
2022/05/11 00:34:17;;;;;;;4.95;3.47;;;;;;;14.92;75.35;101175.47;1036786;28;20101;-79
2022/05/11 00:34:48;;;;;;;3.28;2.47;;;;;;;14.94;75.24;101176.88;1040252;28;20044;-79
2022/05/11 00:35:20;;;;;;;8.25;2.80;;;;;;;14.86;75.51;101177.25;1038187;28;20042;-79
2022/05/11 00:35:52;;;;;;;5.15;2.60;;;;;;;14.89;75.64;101184.81;1040533;28;20042;-78
2022/05/11 00:36:23;;;;;;;4.82;2.53;;;;;;;14.95;76.05;101185.72;1040350;28;20053;-79
2022/05/11 00:36:57;;;;;;;3.97;2.53;;;;;;;14.93;76.36;101185.16;1036031;28;20041;-79
2022/05/11 00:37:29;;;;;;;4.43;2.65;;;;;;;15.01;75.51;101182.91;1036895;28;20038;-79
2022/05/11 00:38:01;;;;;;;6.55;2.95;;;;;;;14.86;75.37;101179.13;1032774;28;20053;-79
2022/05/11 00:38:33;;;;;;;4.13;2.17;;;;;;;14.92;76.17;101183.53;1033061;28;20053;-79
2022/05/11 00:39:05;;;;;;;5.25;2.58;;;;;;;15.00;75.30;101177.78;1036141;28;20038;-79
2022/05/11 00:39:36;;;;;;;2.83;2.40;;;;;;;15.03;76.11;101174.63;1037378;28;20046;-79
2022/05/11 00:40:08;;;;;;;8.50;2.60;;;;;;;15.08;75.86;101172.88;1044367;28;20096;-79
2022/05/11 00:40:42;;;;;;;4.22;2.67;;;;;;;14.98;75.60;101175.34;1044724;28;20052;-79
2022/05/11 00:41:14;;;;;;;5.95;2.58;;;;;;;14.80;76.14;101173.66;1044546;28;20091;-79
2022/05/11 00:41:46;;;;;;;3.33;2.35;;;;;;;14.86;76.42;101179.94;1044464;28;20049;-79
2022/05/11 00:42:17;;;;;;;2.97;1.92;;;;;;;14.82;76.64;101173.41;1040039;28;20045;-79
2022/05/11 00:42:49;;;;;;;7.10;2.72;;;;;;;14.87;76.82;101176.19;1040183;28;20048;-79
2022/05/11 00:43:39;;;;;;;7.57;2.50;;;;;;;14.85;77.51;101178.31;1040838;28;20054;-79
2022/05/11 00:44:12;;;;;;;6.10;2.55;;;;;;;14.88;77.96;101177.81;1043236;28;20045;-79
2022/05/11 00:44:49;;;;;;;16.42;2.33;;;;;;;14.97;77.84;101186.31;1044222;28;20044;-79
2022/05/11 00:45:21;;;;;;;6.45;2.40;;;;;;;14.98;78.35;101182.56;1044250;28;20045;-79
2022/05/11 00:45:53;;;;;;;5.28;2.72;;;;;;;14.88;78.03;101175.13;1044477;28;20038;-79
2022/05/11 00:46:34;;;;;;;3.60;2.20;;;;;;;14.93;77.70;101175.25;1044271;28;20526;-79
2022/05/11 00:47:11;;;;;;;2.15;1.92;;;;;;;14.87;78.04;101164.66;1036096;28;20050;-79
2022/05/11 00:47:45;;;;;;;3.55;1.88;;;;;;;14.92;76.95;101168.25;1036108;28;20385;-79
2022/05/11 00:49:38;;;;;;;4.10;2.35;;;;;;;14.92;76.99;101162.88;1036227;28;20053;-79
2022/05/11 00:50:13;;;;;;;4.80;2.35;;;;;;;14.71;77.15;101160.81;1039047;28;20079;-79
2022/05/11 00:50:44;;;;;;;3.25;2.95;;;;;;;14.70;77.85;101161.88;1034554;28;20053;-79
2022/05/11 00:51:16;;;;;;;5.68;2.30;;;;;;;14.60;78.53;101158.97;1036137;28;20149;-79
2022/05/11 00:51:53;;;;;;;5.93;2.20;;;;;;;14.76;78.68;101159.06;1035458;28;20045;-79
2022/05/11 00:52:27;;;;;;;9.02;2.60;;;;;;;14.55;77.89;101156.19;1038426;28;20049;-78
2022/05/11 00:53:11;;;;;;;2.90;2.63;;;;;;;14.65;78.14;101156.41;1044184;28;20400;-79
2022/05/11 00:53:45;;;;;;;3.60;1.80;;;;;;;14.71;78.48;101158.94;1044167;28;20052;-80
2022/05/11 00:54:19;;;;;;;2.55;2.35;;;;;;;14.77;77.81;101154.50;1044763;28;20497;-79
2022/05/11 00:55:02;;;;;;;5.68;2.45;;;;;;;14.82;77.33;101154.63;1040321;28;20045;-79
2022/05/11 00:55:36;;;;;;;4.30;2.30;;;;;;;14.78;77.61;101148.91;1042916;28;20045;-78
2022/05/11 00:56:07;;;;;;;3.33;2.08;;;;;;;14.80;79.19;101159.44;1039682;28;20133;-78
2022/05/11 00:56:43;;;;;;;3.00;1.75;;;;;;;14.86;79.85;101158.47;1037809;28;20049;-79
2022/05/11 00:57:18;;;;;;;8.73;2.20;;;;;;;14.76;79.45;101152.88;1035374;28;20049;-78
2022/05/11 00:57:57;;;;;;;7.40;2.67;;;;;;;14.51;80.39;101150.47;1032701;28;20042;-78
2022/05/11 00:58:43;;;;;;;5.68;2.30;;;;;;;14.33;81.09;101148.69;1037769;28;20511;-78
2022/05/11 00:59:20;;;;;;;3.17;1.95;;;;;;;14.47;81.07;101143.94;1039389;28;20446;-78
2022/05/11 00:59:52;;;;;;;4.57;2.55;;;;;;;14.51;80.70;101145.91;1041663;28;20048;-79
2022/05/11 01:00:25;;;;;;;5.93;2.20;;;;;;;14.61;80.61;101144.53;1043481;28;20036;-78
2022/05/11 01:00:57;;;;;;;2.90;1.92;;;;;;;14.62;80.42;101143.47;1043590;28;20055;-78
2022/05/11 01:01:29;;;;;;;3.75;1.95;;;;;;;14.37;81.54;101144.50;1043666;28;20052;-78
2022/05/11 01:02:06;;;;;;;3.33;2.90;;;;;;;14.46;81.82;101145.00;1043630;28;20040;-78
2022/05/11 01:02:39;;;;;;;4.05;2.00;;;;;;;14.55;81.94;101148.16;1042877;28;20131;-78
2022/05/11 01:03:14;;;;;;;3.53;1.88;;;;;;;14.45;81.70;101152.22;1039371;28;20044;-79
2022/05/11 01:03:55;;;;;;;5.53;2.42;;;;;;;14.52;82.14;101142.22;1035064;28;20933;-78
2022/05/11 01:04:27;;;;;;;5.00;2.00;;;;;;;14.51;81.47;101147.78;1031534;28;20039;-78
2022/05/11 01:05:01;;;;;;;3.55;2.33;;;;;;;14.21;83.01;101150.56;1033790;28;20049;-78
2022/05/11 01:05:33;;;;;;;3.92;2.72;;;;;;;14.43;82.84;101140.91;1031364;28;20050;-79
2022/05/11 01:06:07;;;;;;;5.30;2.63;;;;;;;14.42;82.97;101139.25;1028071;28;20042;-78
2022/05/11 01:06:39;;;;;;;4.80;2.70;;;;;;;14.37;83.35;101136.47;1028359;28;20490;-78
2022/05/11 01:07:13;;;;;;;3.45;2.05;;;;;;;14.21;83.58;101139.84;1027939;28;20066;-79
2022/05/11 01:07:44;;;;;;;4.60;2.22;;;;;;;14.16;83.31;101137.03;1029753;28;20035;-78
2022/05/11 01:08:18;;;;;;;4.72;1.98;;;;;;;14.21;83.18;101131.78;1031924;28;20042;-78
2022/05/11 01:08:49;;;;;;;4.07;2.17;;;;;;;14.20;82.77;101138.19;1032243;28;20078;-78
2022/05/11 01:09:21;;;;;;;6.18;2.25;;;;;;;14.37;82.94;101133.78;1032133;28;20089;-78
2022/05/11 01:09:52;;;;;;;3.40;1.95;;;;;;;14.42;83.53;101131.22;1031834;28;20046;-78
2022/05/11 01:10:26;;;;;;;8.63;2.80;;;;;;;14.31;83.89;101125.88;1035812;28;20050;-78
2022/05/11 01:11:00;;;;;;;3.10;2.30;;;;;;;14.21;83.43;101124.56;1032037;28;20049;-79
2022/05/11 01:11:33;;;;;;;4.05;2.03;;;;;;;13.97;83.31;101128.31;1032361;28;20441;-78
2022/05/11 01:12:08;;;;;;;2.35;1.90;;;;;;;14.03;83.65;101121.22;1035262;28;20042;-78
2022/05/11 01:12:43;;;;;;;3.75;2.55;;;;;;;14.06;83.19;101124.22;1037782;28;20038;-78
2022/05/11 01:13:16;;;;;;;3.83;2.20;;;;;;;14.10;83.52;101125.41;1043618;28;20615;-78
2022/05/11 01:13:47;;;;;;;6.15;3.45;;;;;;;14.11;82.79;101124.34;1041562;28;20520;-78
2022/05/11 01:14:22;;;;;;;4.05;2.00;;;;;;;14.06;83.70;101121.56;1038398;28;20041;-78
2022/05/11 01:14:56;;;;;;;3.83;3.00;;;;;;;14.17;83.54;101128.78;1036303;28;20065;-78
2022/05/11 01:15:31;;;;;;;2.88;2.42;;;;;;;14.21;83.46;101119.22;1042193;28;20102;-78
2022/05/11 01:16:03;;;;;;;6.57;2.60;;;;;;;14.17;83.37;101118.06;1043679;28;20044;-78
2022/05/11 01:16:35;;;;;;;3.63;2.75;;;;;;;14.12;84.22;101120.63;1039111;28;20127;-78
2022/05/11 01:17:07;;;;;;;6.10;2.30;;;;;;;14.10;83.68;101119.22;1039212;28;20151;-78
2022/05/11 01:17:40;;;;;;;12.98;2.70;;;;;;;14.30;83.34;101121.56;1039138;28;20043;-78
2022/05/11 01:18:11;;;;;;;4.15;2.33;;;;;;;14.28;83.30;101121.78;1039551;28;20527;-78
2022/05/11 01:18:43;;;;;;;3.85;2.25;;;;;;;14.32;83.09;101114.91;1043451;28;20048;-78
2022/05/11 01:19:29;;;;;;;3.30;2.85;;;;;;;14.32;83.05;101120.28;1043872;28;20040;-78
2022/05/11 01:20:01;;;;;;;5.93;2.58;;;;;;;14.24;83.54;101115.25;1041217;28;20037;-78
2022/05/11 01:20:36;;;;;;;3.10;2.15;;;;;;;14.25;84.02;101111.56;1039369;28;20577;-78
2022/05/11 01:21:08;;;;;;;2.70;1.83;;;;;;;14.27;83.24;101117.50;1039624;28;20124;-78
2022/05/11 01:21:46;;;;;;;4.68;1.98;;;;;;;14.10;83.83;101116.53;1040514;28;20045;-78
2022/05/11 01:22:35;;;;;;;5.38;2.88;;;;;;;14.09;83.67;101117.59;1039374;28;20059;-79
2022/05/11 01:23:32;;;;;;;7.43;2.42;;;;;;;14.19;83.61;101115.13;1035264;28;20045;-78
2022/05/11 01:24:47;;;;;;;1.98;1.70;;;;;;;14.22;83.01;101120.03;1041868;28;20118;-78
2022/05/11 01:25:20;;;;;;;4.97;2.33;;;;;;;14.09;83.31;101115.72;1035767;28;20050;-79
2022/05/11 01:25:51;;;;;;;2.88;2.30;;;;;;;14.00;84.00;101110.97;1035530;28;20050;-79
2022/05/11 01:26:23;;;;;;;4.60;2.40;;;;;;;14.01;83.75;101115.28;1031682;28;20424;-79
2022/05/11 01:26:56;;;;;;;11.27;2.90;;;;;;;14.09;84.36;101115.72;1032195;28;20484;-78
2022/05/11 01:27:30;;;;;;;3.85;1.98;;;;;;;14.02;84.46;101114.22;1033198;28;20053;-78
2022/05/11 01:28:11;;;;;;;3.63;2.17;;;;;;;14.12;84.54;101117.94;1036941;28;20045;-78
2022/05/11 01:28:48;;;;;;;7.95;2.42;;;;;;;14.07;84.06;101119.69;1039762;28;20045;-79
2022/05/11 01:29:19;;;;;;;2.65;2.20;;;;;;;14.11;84.38;101123.53;1035801;28;20057;-78
2022/05/11 01:29:52;;;;;;;6.95;2.20;;;;;;;13.97;84.58;101116.75;1027658;28;20057;-78
2022/05/11 01:30:23;;;;;;;4.22;2.40;;;;;;;13.92;84.28;101110.22;1023756;29;20062;-78
2022/05/11 01:31:05;;;;;;;3.60;2.10;;;;;;;14.12;85.10;101119.81;1024287;28;20051;-79
2022/05/11 01:31:37;;;;;;;3.63;2.22;;;;;;;13.99;85.30;101115.50;1038065;28;20038;-78
2022/05/11 01:32:08;;;;;;;7.30;2.40;;;;;;;13.89;85.96;101113.38;1041943;28;20048;-78
2022/05/11 01:32:45;;;;;;;3.35;2.50;;;;;;;13.80;86.25;101122.00;1044218;28;20045;-78
2022/05/11 01:33:22;;;;;;;4.35;2.45;;;;;;;13.92;85.71;101115.59;1044397;28;20478;-78
2022/05/11 01:33:54;;;;;;;3.80;2.38;;;;;;;13.96;85.53;101112.44;1040118;28;20072;-78
2022/05/11 01:34:26;;;;;;;3.20;2.05;;;;;;;14.01;85.67;101112.59;1040039;28;20045;-78
2022/05/11 01:35:42;;;;;;;6.00;2.30;;;;;;;13.99;85.06;101114.69;1039941;28;20053;-78
2022/05/11 01:36:20;;;;;;;3.70;2.28;;;;;;;13.87;85.02;101112.78;1034101;28;20053;-78
2022/05/11 01:36:55;;;;;;;5.03;2.50;;;;;;;14.04;85.13;101112.94;1037735;28;20045;-78
2022/05/11 01:37:27;;;;;;;5.70;2.13;;;;;;;13.97;85.02;101106.03;1042418;28;20037;-78
2022/05/11 01:38:19;;;;;;;6.82;2.47;;;;;;;14.03;85.77;101110.50;1040418;28;20054;-78
2022/05/11 01:39:02;;;;;;;4.20;2.28;;;;;;;14.03;85.45;101111.31;1039350;28;20037;-78
2022/05/11 01:39:34;;;;;;;4.78;2.42;;;;;;;13.97;84.91;101106.03;1037125;28;20451;-78
2022/05/11 01:40:06;;;;;;;4.75;2.22;;;;;;;14.02;84.73;101108.88;1043991;28;20045;-78
2022/05/11 01:40:38;;;;;;;5.03;2.50;;;;;;;14.03;85.26;101105.13;1044128;28;20045;-78
2022/05/11 01:41:13;;;;;;;3.08;2.25;;;;;;;13.98;85.14;101107.69;1043956;28;20100;-78
2022/05/11 01:41:52;;;;;;;3.08;2.42;;;;;;;14.00;84.87;101105.59;1040016;28;20048;-79
2022/05/11 01:42:24;;;;;;;6.55;2.30;;;;;;;14.00;85.89;101101.06;1039891;28;20041;-78
2022/05/11 01:42:56;;;;;;;4.50;2.47;;;;;;;14.08;85.48;101103.38;1040041;28;20116;-78
2022/05/11 01:43:30;;;;;;;2.75;2.30;;;;;;;14.09;85.32;101098.84;1037628;28;20042;-78
2022/05/11 01:48:02;;;;;;;3.70;2.25;;;;;;;14.18;84.65;101090.22;1044259;28;20044;-79
2022/05/11 01:52:08;;;;;;;10.27;2.65;;;;;;;14.13;84.79;101090.09;1044561;28;20482;-79
2022/05/11 01:52:39;;;;;;;3.92;2.30;;;;;;;14.23;84.39;101094.88;1040428;28;20044;-79
2022/05/11 01:53:11;;;;;;;7.53;3.17;;;;;;;14.25;84.17;101087.44;1040149;28;20049;-78
2022/05/11 01:53:43;;;;;;;4.90;3.30;;;;;;;14.27;84.73;101085.34;1038856;28;20057;-79
2022/05/11 01:54:15;;;;;;;3.63;3.20;;;;;;;14.22;84.25;101082.53;1039984;28;20053;-78
2022/05/11 01:54:47;;;;;;;4.22;2.70;;;;;;;14.15;84.70;101084.50;1036638;28;20045;-79
2022/05/11 01:55:18;;;;;;;6.32;2.75;;;;;;;14.19;83.86;101088.34;1040848;28;20096;-79
2022/05/11 01:55:50;;;;;;;7.85;3.40;;;;;;;14.29;83.65;101085.91;1043941;28;20517;-78
2022/05/11 01:56:23;;;;;;;3.45;2.95;;;;;;;14.32;83.97;101088.13;1040460;28;20045;-78
2022/05/11 01:56:54;;;;;;;14.45;3.30;;;;;;;14.25;84.29;101087.44;1035827;28;20038;-79
2022/05/11 01:57:26;;;;;;;7.80;3.30;;;;;;;14.19;83.82;101085.66;1035903;28;20046;-78
2022/05/11 01:57:58;;;;;;;6.60;3.40;;;;;;;14.19;84.43;101093.72;1039147;28;20158;-78
2022/05/11 01:58:30;;;;;;;5.18;2.60;;;;;;;14.20;84.74;101090.78;1040637;28;20045;-78
2022/05/11 01:59:02;;;;;;;5.70;2.92;;;;;;;14.16;84.48;101089.63;1039845;28;20041;-79
2022/05/11 01:59:34;;;;;;;6.75;4.82;;;;;;;14.11;83.93;101086.03;1035873;28;20524;-78
2022/05/11 02:00:06;;;;;;;2.97;2.47;;;;;;;14.19;84.86;101083.00;1036583;28;20038;-78
2022/05/11 02:00:44;;;;;;;4.05;3.17;;;;;;;14.01;85.25;101086.63;1037372;28;20104;-79
2022/05/11 02:01:19;;;;;;;5.10;3.17;;;;;;;14.04;84.80;101086.16;1037381;28;20052;-79
2022/05/11 02:01:51;;;;;;;3.47;2.78;;;;;;;13.96;85.71;101088.34;1035955;28;20069;-78
2022/05/11 02:02:23;;;;;;;4.63;3.58;;;;;;;13.97;85.77;101090.81;1036776;28;20056;-78
2022/05/11 02:02:55;;;;;;;5.30;3.47;;;;;;;13.85;86.03;101082.75;1039695;28;20124;-78
2022/05/11 02:03:26;;;;;;;5.65;3.35;;;;;;;13.79;86.33;101085.56;1045188;28;20045;-78
2022/05/11 02:03:59;;;;;;;6.40;3.35;;;;;;;13.87;85.78;101085.19;1045276;28;20041;-78
2022/05/11 02:07:51;;;;;;;41.35;7.45;;;;;;;14.08;84.75;101075.78;1041577;28;20044;-78
2022/05/11 02:08:23;;;;;;;44.88;7.95;;;;;;;14.18;84.85;101076.00;1044507;28;20049;-78
2022/05/11 02:08:54;;;;;;;67.45;8.88;;;;;;;14.04;84.60;101077.31;1045359;28;20438;-78
2022/05/11 02:09:26;;;;;;;90.45;12.52;;;;;;;14.07;84.67;101064.25;1044960;28;20075;-78
2022/05/11 02:09:58;;;;;;;84.25;9.45;;;;;;;14.02;85.35;101076.72;1044979;28;20478;-78
2022/05/11 02:10:29;;;;;;;106.35;11.52;;;;;;;13.99;85.37;101071.84;1042244;28;20046;-78
2022/05/11 02:11:01;;;;;;;107.40;11.65;;;;;;;14.05;85.87;101078.94;1045264;28;20505;-79
2022/05/11 02:11:33;;;;;;;105.38;14.18;;;;;;;14.07;85.62;101083.00;1045260;28;20059;-78
2022/05/11 02:12:05;;;;;;;63.78;9.82;;;;;;;13.95;85.82;101074.13;1044787;28;20507;-79
2022/05/11 02:12:36;;;;;;;130.18;13.80;;;;;;;13.92;86.55;101074.59;1044824;28;20045;-79
2022/05/11 02:13:08;;;;;;;100.22;13.80;;;;;;;13.69;86.73;101078.06;1044968;28;20041;-78
2022/05/11 02:13:40;;;;;;;64.20;9.23;;;;;;;13.63;87.35;101084.34;1044974;28;20048;-78
2022/05/11 02:14:12;;;;;;;66.35;10.85;;;;;;;13.64;87.22;101091.34;1044906;28;20522;-78
2022/05/11 02:14:44;;;;;;;86.53;11.40;;;;;;;13.55;87.52;101076.66;1044943;28;20063;-78
2022/05/11 02:15:17;;;;;;;67.90;9.75;;;;;;;13.73;87.28;101079.28;1045023;28;20087;-79
2022/05/11 02:15:50;;;;;;;62.53;8.88;;;;;;;13.80;86.42;101076.47;1041496;28;20105;-78
2022/05/11 02:16:21;;;;;;;60.50;11.77;;;;;;;13.88;86.53;101071.59;1040783;28;20060;-78
2022/05/11 02:16:53;;;;;;;41.45;8.68;;;;;;;13.77;86.89;101069.72;1040761;28;20038;-78
2022/05/11 02:17:24;;;;;;;55.17;9.68;;;;;;;13.77;86.54;101069.72;1037267;28;20108;-78
2022/05/11 02:17:56;;;;;;;48.15;8.45;;;;;;;13.84;86.51;101078.44;1041374;28;20365;-78
2022/05/11 02:18:28;;;;;;;51.47;8.07;;;;;;;13.88;86.86;101076.94;1040784;28;20041;-79
2022/05/11 02:19:00;;;;;;;55.25;7.57;;;;;;;13.89;86.64;101073.22;1037424;28;20053;-78
2022/05/11 02:19:31;;;;;;;55.13;8.52;;;;;;;13.99;86.17;101071.84;1036814;28;20042;-78
2022/05/11 02:20:04;;;;;;;43.80;6.82;;;;;;;14.00;86.57;101071.59;1033241;28;20385;-78
2022/05/11 02:20:35;;;;;;;51.88;7.40;;;;;;;13.78;86.64;101070.53;1037242;28;20049;-78
2022/05/11 02:21:07;;;;;;;45.60;7.80;;;;;;;13.92;87.27;101070.06;1041474;28;20045;-78
2022/05/11 02:21:39;;;;;;;35.88;6.63;;;;;;;13.87;86.68;101069.94;1041536;28;20049;-78
2022/05/11 02:22:10;;;;;;;25.85;6.35;;;;;;;13.79;87.21;101067.63;1040727;28;20503;-78
2022/05/11 02:22:42;;;;;;;37.63;6.32;;;;;;;13.93;87.11;101069.03;1040824;28;20041;-78
2022/05/11 02:23:15;;;;;;;31.98;6.80;;;;;;;13.91;86.53;101064.94;1037132;28;20042;-78
2022/05/11 02:23:50;;;;;;;15.30;5.15;;;;;;;13.83;87.08;101066.09;1033357;28;20042;-78
2022/05/11 02:24:23;;;;;;;21.70;4.80;;;;;;;13.76;86.16;101069.97;1032691;28;20413;-79
2022/05/11 02:25:21;;;;;;;13.40;4.85;;;;;;;13.71;87.38;101065.31;1028590;28;20042;-79
2022/05/11 02:25:53;;;;;;;18.70;4.47;;;;;;;13.92;86.84;101066.56;1033228;28;20432;-79
2022/05/11 02:26:34;;;;;;;12.05;4.07;;;;;;;13.86;86.19;101073.69;1032716;28;20054;-78
2022/05/11 02:27:06;;;;;;;13.23;3.70;;;;;;;13.88;87.24;101070.75;1040703;28;20049;-78
2022/05/11 02:27:38;;;;;;;11.68;4.50;;;;;;;13.82;87.10;101067.16;1040824;28;20048;-80
2022/05/11 02:28:10;;;;;;;15.95;4.72;;;;;;;13.90;86.77;101069.47;1041137;28;20041;-78
2022/05/11 02:28:42;;;;;;;12.00;4.28;;;;;;;14.06;86.06;101070.66;1044953;28;20108;-78
2022/05/11 02:29:14;;;;;;;9.50;4.15;;;;;;;14.12;85.77;101071.59;1044764;28;20033;-79
2022/05/11 02:29:46;;;;;;;12.35;4.32;;;;;;;14.01;86.09;101065.19;1040825;28;20041;-78
2022/05/11 02:30:22;;;;;;;18.15;5.82;;;;;;;13.98;86.09;101064.84;1041386;28;20096;-78
2022/05/11 02:30:56;;;;;;;9.88;4.75;;;;;;;14.08;84.93;101059.72;1040900;28;20052;-78
2022/05/11 02:31:27;;;;;;;6.75;4.10;;;;;;;14.10;84.51;101061.09;1038032;28;20042;-79
2022/05/11 02:31:59;;;;;;;12.27;4.35;;;;;;;14.12;84.63;101066.22;1040798;28;20041;-78
2022/05/11 02:32:30;;;;;;;8.15;4.38;;;;;;;13.82;85.69;101055.63;1041614;28;20549;-78
2022/05/11 02:33:02;;;;;;;6.07;4.05;;;;;;;13.78;86.11;101054.47;1044932;28;20514;-78
2022/05/11 02:33:34;;;;;;;17.23;4.82;;;;;;;13.80;86.72;101058.53;1044784;28;20063;-78
2022/05/11 02:34:06;;;;;;;9.27;4.20;;;;;;;13.92;86.40;101066.56;1044889;28;20491;-78
2022/05/11 02:35:28;;;;;;;4.35;3.95;;;;;;;14.02;86.15;101060.66;1039780;28;20049;-78
2022/05/11 02:35:59;;;;;;;6.50;4.00;;;;;;;14.07;86.12;101064.25;1036513;28;20385;-78
2022/05/11 02:36:32;;;;;;;7.53;4.40;;;;;;;14.00;85.60;101057.41;1032550;28;20042;-78
2022/05/11 02:37:03;;;;;;;7.60;4.32;;;;;;;13.78;85.93;101060.66;1038577;28;20041;-78
2022/05/11 02:37:35;;;;;;;7.55;3.58;;;;;;;13.84;86.45;101058.91;1041393;28;20451;-78
2022/05/11 02:38:16;;;;;;;7.53;3.88;;;;;;;13.77;86.83;101060.88;1044888;28;20045;-78
2022/05/11 02:38:48;;;;;;;6.75;4.78;;;;;;;13.84;87.28;101054.34;1044876;28;20116;-78
2022/05/11 02:39:20;;;;;;;6.10;4.00;;;;;;;13.72;86.76;101061.56;1044793;28;20052;-78
2022/05/11 02:39:51;;;;;;;9.82;4.63;;;;;;;13.72;86.65;101056.22;1044787;28;20048;-78
2022/05/11 02:40:28;;;;;;;6.57;4.38;;;;;;;13.77;86.65;101056.34;1041237;28;20049;-78
2022/05/11 02:40:59;;;;;;;11.73;5.20;;;;;;;13.74;87.14;101059.47;1040701;28;20041;-79
2022/05/11 02:41:31;;;;;;;6.20;3.97;;;;;;;13.64;87.12;101053.06;1040552;28;20044;-78
2022/05/11 02:42:03;;;;;;;10.52;4.22;;;;;;;13.73;86.89;101063.19;1041814;28;20064;-78
2022/05/11 02:42:34;;;;;;;10.88;4.45;;;;;;;13.78;86.72;101057.97;1036476;28;20101;-78
2022/05/11 02:43:08;;;;;;;5.35;4.60;;;;;;;13.86;86.05;101060.28;1037092;28;20463;-78
2022/05/11 02:43:39;;;;;;;8.30;4.43;;;;;;;14.04;86.62;101064.72;1036454;28;20046;-78
2022/05/11 02:44:11;;;;;;;6.78;4.03;;;;;;;13.68;86.40;101057.72;1037968;28;20046;-78
2022/05/11 02:44:43;;;;;;;6.18;4.40;;;;;;;13.82;86.68;101064.47;1044711;28;20057;-78
2022/05/11 02:45:15;;;;;;;6.72;4.05;;;;;;;13.83;86.85;101060.75;1041539;28;20076;-78
2022/05/11 02:45:46;;;;;;;8.30;3.95;;;;;;;13.89;85.42;101062.50;1040715;28;20049;-78
2022/05/11 02:46:18;;;;;;;6.78;4.10;;;;;;;13.96;85.38;101059.69;1040826;28;20118;-78
2022/05/11 02:46:50;;;;;;;5.13;4.68;;;;;;;14.01;84.05;101059.03;1041340;28;20151;-78
2022/05/11 02:47:21;;;;;;;7.10;3.78;;;;;;;14.04;84.43;101059.38;1044957;28;20041;-78
2022/05/11 02:47:54;;;;;;;8.65;4.53;;;;;;;14.00;84.20;101052.84;1045190;28;20045;-78
2022/05/11 02:48:26;;;;;;;12.55;4.53;;;;;;;14.01;84.34;101059.03;1044883;28;20045;-78
2022/05/11 02:48:57;;;;;;;9.30;4.53;;;;;;;14.13;84.86;101065.19;1040620;28;20049;-78